createdAt,value
2018-11-23T00:00:23.223Z,24.80
2018-11-23T00:02:51.962Z,24.55
2018-11-23T00:05:20.537Z,24.23
2018-11-23T00:07:49.231Z,24.85
2018-11-23T00:10:18.814Z,23.25
2018-11-23T00:12:47.339Z,25.00
2018-11-23T00:15:16.929Z,24.50
2018-11-23T00:17:45.314Z,25.23
2018-11-23T00:20:16.009Z,26.70
2018-11-23T00:22:44.334Z,24.27
2018-11-23T00:25:14.941Z,26.55
2018-11-23T00:27:43.246Z,25.40
2018-11-23T00:30:13.306Z,23.90
2018-11-23T00:32:42.033Z,26.37
2018-11-23T00:35:12.349Z,25.35
2018-11-23T00:37:40.634Z,24.85
2018-11-23T00:40:12.702Z,23.35
2018-11-23T00:42:41.386Z,24.98
2018-11-23T00:45:11.444Z,27.02
2018-11-23T00:47:39.736Z,25.23
2018-11-23T00:50:10.210Z,26.97
2018-11-23T00:52:38.778Z,25.20
2018-11-23T00:55:07.938Z,25.48
2018-11-23T00:57:36.238Z,24.45
2018-11-23T01:00:06.406Z,26.02
2018-11-23T01:02:34.723Z,27.17
2018-11-23T01:05:03.081Z,24.20
2018-11-23T01:07:31.362Z,24.02
2018-11-23T01:09:59.711Z,27.52
2018-11-23T01:12:28.254Z,27.80
2018-11-23T01:14:56.646Z,24.50
2018-11-23T01:17:24.969Z,25.17
2018-11-23T01:19:53.278Z,24.87
2018-11-23T01:22:21.618Z,25.25
2018-11-23T01:24:49.976Z,24.40
2018-11-23T01:27:18.326Z,23.25
2018-11-23T01:29:46.631Z,24.55
2018-11-23T01:32:14.986Z,25.35
2018-11-23T01:34:43.286Z,25.35
2018-11-23T01:37:11.614Z,25.57
2018-11-23T01:39:39.949Z,25.15
2018-11-23T01:42:08.255Z,24.75
2018-11-23T01:44:41.901Z,27.07
2018-11-23T01:47:10.272Z,26.48
2018-11-23T01:49:38.560Z,23.73
2018-11-23T01:52:06.874Z,24.27
2018-11-23T01:54:35.173Z,24.32
2018-11-23T01:57:03.515Z,24.80
2018-11-23T01:59:32.510Z,26.02
2018-11-23T02:02:00.942Z,25.45
2018-11-23T02:04:29.265Z,25.00
2018-11-23T02:06:57.598Z,25.90
2018-11-23T02:09:25.926Z,26.62
2018-11-23T02:11:54.870Z,25.72
2018-11-23T02:14:23.608Z,24.70
2018-11-23T02:16:52.947Z,25.65
2018-11-23T02:19:21.361Z,26.45
2018-11-23T02:21:49.791Z,26.17
2018-11-23T02:24:18.620Z,27.10
2018-11-23T02:26:46.990Z,23.85
2018-11-23T02:29:15.396Z,27.42
2018-11-23T02:31:43.710Z,24.43
2018-11-23T02:34:12.027Z,26.10
2018-11-23T02:36:40.338Z,25.35
2018-11-23T02:39:08.981Z,26.27
2018-11-23T02:41:37.521Z,22.67
2018-11-23T02:44:05.914Z,27.17
2018-11-23T02:46:34.220Z,25.97
2018-11-23T02:49:02.577Z,26.35
2018-11-23T02:51:30.918Z,24.50
2018-11-23T02:53:59.244Z,25.30
2018-11-23T02:56:32.055Z,25.60
2018-11-23T02:59:01.436Z,24.10
2018-11-23T03:01:29.750Z,24.67
2018-11-23T03:03:58.045Z,25.05
2018-11-23T03:06:26.356Z,24.40
2018-11-23T03:08:54.744Z,25.08
2018-11-23T03:11:23.038Z,27.30
2018-11-23T03:13:51.461Z,25.60
2018-11-23T03:16:19.742Z,25.55
2018-11-23T03:18:48.074Z,24.98
2018-11-23T03:21:16.385Z,24.63
2018-11-23T03:23:44.669Z,25.95
2018-11-23T03:26:12.982Z,26.87
2018-11-23T03:28:41.274Z,28.00
2018-11-23T03:31:12.432Z,24.40
2018-11-23T03:33:37.934Z,26.07
2018-11-23T03:36:06.351Z,26.97
2018-11-23T03:38:34.685Z,24.75
2018-11-23T03:41:03.033Z,25.85
2018-11-23T03:43:31.330Z,27.17
2018-11-23T03:45:59.665Z,26.02
2018-11-23T03:48:27.971Z,27.40
2018-11-23T03:50:56.279Z,26.93
2018-11-23T03:53:24.587Z,28.25
2018-11-23T03:55:52.897Z,26.73
2018-11-23T03:58:21.194Z,26.05
2018-11-23T04:00:49.536Z,26.70
2018-11-23T04:03:17.830Z,28.25
2018-11-23T04:05:46.954Z,27.77
2018-11-23T04:08:15.266Z,26.27
2018-11-23T04:10:43.594Z,25.62
2018-11-23T04:13:11.926Z,26.35
2018-11-23T04:15:40.237Z,25.55
2018-11-23T04:18:08.558Z,27.50
2018-11-23T04:20:36.865Z,24.92
2018-11-23T04:23:05.269Z,26.90
2018-11-23T04:25:33.562Z,26.30
2018-11-23T04:28:02.148Z,25.40
2018-11-23T04:30:30.462Z,27.48
2018-11-23T04:32:58.806Z,26.12
2018-11-23T04:35:27.117Z,28.73
2018-11-23T04:37:55.441Z,25.77
2018-11-23T04:40:23.721Z,28.42
2018-11-23T04:42:52.030Z,26.80
2018-11-23T04:45:20.374Z,25.50
2018-11-23T04:47:48.724Z,28.57
2018-11-23T04:50:17.120Z,26.40
2018-11-23T04:52:45.449Z,26.48
2018-11-23T04:55:14.000Z,27.80
2018-11-23T04:57:42.590Z,26.30
2018-11-23T05:00:13.109Z,25.95
2018-11-23T05:02:41.831Z,25.65
2018-11-23T05:05:10.768Z,23.73
2018-11-23T05:07:39.134Z,26.23
2018-11-23T05:10:09.157Z,27.22
2018-11-23T05:12:37.534Z,26.60
2018-11-23T05:15:06.899Z,26.25
2018-11-23T05:17:35.413Z,25.08
2018-11-23T05:20:04.948Z,23.67
2018-11-23T05:22:33.260Z,27.87
2018-11-23T05:25:01.617Z,24.52
2018-11-23T05:27:29.962Z,25.97
2018-11-23T05:29:59.145Z,27.17
2018-11-23T05:32:27.566Z,26.12
2018-11-23T05:34:55.902Z,26.23
2018-11-23T05:37:24.266Z,27.55
2018-11-23T05:39:52.588Z,29.45
2018-11-23T05:42:20.886Z,28.15
2018-11-23T05:44:49.219Z,27.45
2018-11-23T05:47:17.584Z,26.62
2018-11-23T05:49:46.526Z,27.40
2018-11-23T05:52:14.839Z,26.82
2018-11-23T05:54:43.133Z,26.30
2018-11-23T05:57:11.449Z,27.30
2018-11-23T05:59:39.996Z,26.80
2018-11-23T06:05:31.462Z,27.20
2018-11-23T06:07:59.781Z,29.72
2018-11-23T06:10:28.104Z,27.80
2018-11-23T06:12:57.118Z,26.97
2018-11-23T06:15:25.686Z,26.00
2018-11-23T06:17:54.113Z,25.12
2018-11-23T06:20:23.842Z,28.12
2018-11-23T06:22:52.930Z,26.33
2018-11-23T06:25:27.208Z,31.82
2018-11-23T06:27:55.524Z,28.85
2018-11-23T06:30:27.238Z,30.27
2018-11-23T06:33:06.796Z,29.92
2018-11-23T06:35:35.117Z,28.75
2018-11-23T06:38:03.430Z,28.25
2018-11-23T06:40:31.762Z,28.05
2018-11-23T06:43:00.086Z,28.40
2018-11-23T06:45:28.621Z,28.75
2018-11-23T06:47:56.934Z,26.65
2018-11-23T06:50:25.216Z,28.15
2018-11-23T06:52:53.519Z,26.97
2018-11-23T06:55:21.821Z,27.77
2018-11-23T06:57:50.120Z,29.35
2018-11-23T07:00:18.468Z,29.30
2018-11-23T07:02:46.808Z,27.13
2018-11-23T07:05:15.114Z,27.40
2018-11-23T07:07:43.414Z,28.57
2018-11-23T07:10:11.871Z,25.65
2018-11-23T07:12:40.647Z,24.05
2018-11-23T07:15:11.310Z,25.68
2018-11-23T07:17:40.058Z,26.93
2018-11-23T07:20:09.930Z,26.60
2018-11-23T07:22:38.994Z,28.00
2018-11-23T07:25:08.519Z,27.70
2018-11-23T07:27:36.820Z,24.57
2018-11-23T07:30:09.166Z,26.95
2018-11-23T07:32:37.453Z,28.40
2018-11-23T07:35:05.958Z,29.05
2018-11-23T07:37:35.402Z,28.83
2018-11-23T07:40:14.834Z,31.35
2018-11-23T07:42:43.123Z,28.45
2018-11-23T07:45:12.286Z,26.60
2018-11-23T07:47:40.609Z,29.87
2018-11-23T07:50:09.667Z,28.07
2018-11-23T07:52:37.995Z,29.25
2018-11-23T07:55:07.779Z,27.77
2018-11-23T07:57:36.801Z,28.25
2018-11-23T08:00:08.505Z,27.13
2018-11-23T08:02:38.354Z,27.55
2018-11-23T08:05:08.503Z,29.12
2018-11-23T08:07:36.843Z,26.65
2018-11-23T08:10:07.142Z,27.48
2018-11-23T08:12:35.434Z,26.10
2018-11-23T08:15:03.855Z,28.85
2018-11-23T08:17:32.190Z,26.42
2018-11-23T08:20:00.463Z,26.17
2018-11-23T08:22:28.762Z,29.63
2018-11-23T08:24:57.058Z,28.00
2018-11-23T08:27:25.478Z,27.30
2018-11-23T08:29:53.766Z,29.65
2018-11-23T08:32:22.129Z,27.82
2018-11-23T08:34:50.434Z,28.67
2018-11-23T08:37:18.781Z,28.12
2018-11-23T08:39:47.143Z,28.90
2018-11-23T08:42:15.497Z,25.95
2018-11-23T08:44:44.515Z,25.45
2018-11-23T08:47:13.025Z,24.60
2018-11-23T08:49:41.966Z,25.15
2018-11-23T08:52:10.265Z,26.80
2018-11-23T08:54:38.586Z,29.20
2018-11-23T08:57:07.128Z,26.75
2018-11-23T08:59:35.454Z,25.92
2018-11-23T09:02:03.800Z,27.10
2018-11-23T09:04:32.113Z,25.68
2018-11-23T09:07:00.463Z,26.73
2018-11-23T09:09:28.766Z,26.42
2018-11-23T09:11:57.074Z,26.73
2018-11-23T09:14:25.616Z,26.70
2018-11-23T09:16:53.990Z,25.15
2018-11-23T09:19:22.332Z,26.57
2018-11-23T09:21:50.662Z,26.27
2018-11-23T09:24:19.175Z,26.95
2018-11-23T09:26:47.498Z,28.27
2018-11-23T09:29:16.436Z,26.27
2018-11-23T09:31:44.754Z,26.27
2018-11-23T09:34:13.151Z,26.87
2018-11-23T09:36:42.093Z,26.02
2018-11-23T09:39:10.939Z,26.80
2018-11-23T09:41:39.261Z,26.40
2018-11-23T09:44:07.548Z,26.33
2018-11-23T09:46:36.397Z,29.07
2018-11-23T09:49:04.865Z,26.75
2018-11-23T09:51:34.002Z,28.38
2018-11-23T09:54:02.353Z,24.40
2018-11-23T09:56:30.678Z,26.93
2018-11-23T09:58:58.987Z,26.45
2018-11-23T10:01:27.327Z,26.65
2018-11-23T10:03:55.622Z,27.32
2018-11-23T10:06:23.947Z,26.75
2018-11-23T10:08:52.296Z,26.82
2018-11-23T10:11:20.689Z,26.17
2018-11-23T10:13:49.043Z,28.73
2018-11-23T10:16:17.379Z,27.20
2018-11-23T10:18:45.718Z,25.08
2018-11-23T10:21:14.040Z,27.42
2018-11-23T10:23:42.366Z,25.97
2018-11-23T10:26:10.668Z,27.02
2018-11-23T10:28:38.980Z,27.07
2018-11-23T10:31:07.291Z,25.68
2018-11-23T10:33:35.674Z,26.33
2018-11-23T10:36:04.066Z,26.65
2018-11-23T10:38:32.390Z,26.02
2018-11-23T10:41:01.390Z,27.20
2018-11-23T10:43:29.706Z,25.88
2018-11-23T10:45:57.989Z,26.07
2018-11-23T10:48:27.365Z,27.60
2018-11-23T10:50:55.708Z,24.50
2018-11-23T10:53:24.009Z,25.75
2018-11-23T10:55:52.321Z,27.10
2018-11-23T10:58:20.689Z,25.82
2018-11-23T11:00:54.201Z,25.83
2018-11-23T11:03:38.651Z,25.07
2018-11-23T11:06:13.163Z,24.50
2018-11-23T11:08:42.048Z,25.83
2018-11-23T11:11:13.562Z,25.70
2018-11-23T11:13:38.857Z,25.33
2018-11-23T11:16:07.166Z,23.80
2018-11-23T11:18:35.574Z,25.47
2018-11-23T11:21:03.906Z,27.90
2018-11-23T11:23:32.312Z,25.90
2018-11-23T11:26:00.700Z,24.20
2018-11-23T11:28:29.153Z,26.37
2018-11-23T11:30:57.493Z,25.50
2018-11-23T11:33:25.818Z,25.83
2018-11-23T11:35:54.125Z,26.93
2018-11-23T11:38:22.422Z,26.47
2018-11-23T11:40:50.812Z,25.20
2018-11-23T11:43:19.142Z,25.13
2018-11-23T11:45:47.486Z,24.00
2018-11-23T11:48:15.788Z,24.90
2018-11-23T11:50:44.115Z,25.30
2018-11-23T11:53:13.087Z,24.43
2018-11-23T11:55:41.400Z,22.60
2018-11-23T11:58:09.731Z,22.40
2018-11-23T12:00:38.777Z,22.80
2018-11-23T12:03:08.110Z,22.90
2018-11-23T12:05:36.783Z,22.37
2018-11-23T12:08:05.960Z,23.30
2018-11-23T12:10:34.286Z,22.23
2018-11-23T12:13:02.572Z,22.83
2018-11-23T12:15:30.897Z,23.67
2018-11-23T12:17:59.219Z,24.20
2018-11-23T12:20:27.545Z,22.20
2018-11-23T12:22:55.846Z,21.73
2018-11-23T12:25:24.271Z,22.47
2018-11-23T12:27:52.897Z,22.17
2018-11-23T12:30:21.906Z,21.40
2018-11-23T12:32:51.318Z,21.67
2018-11-23T12:35:20.422Z,22.03
2018-11-23T12:37:48.737Z,21.37
2018-11-23T12:40:18.597Z,20.87
2018-11-23T12:42:47.403Z,20.27
2018-11-23T12:45:17.101Z,22.33
2018-11-23T12:47:45.421Z,20.80
2018-11-23T12:50:16.550Z,21.67
2018-11-23T12:52:45.135Z,20.90
2018-11-23T12:55:13.943Z,20.03
2018-11-23T12:57:42.558Z,21.13
2018-11-23T13:00:23.791Z,20.00
2018-11-23T13:02:53.440Z,18.73
2018-11-23T13:05:22.523Z,21.37
2018-11-23T13:07:51.743Z,20.80
2018-11-23T13:10:20.276Z,18.80
2018-11-23T13:12:50.862Z,19.93
2018-11-23T13:15:16.986Z,19.07
2018-11-23T13:17:45.300Z,20.20
2018-11-23T13:20:15.240Z,19.37
2018-11-23T13:22:43.793Z,20.57
2018-11-23T13:25:15.285Z,20.93
2018-11-23T13:27:43.678Z,21.07
2018-11-23T13:30:14.102Z,22.10
2018-11-23T13:32:42.954Z,21.70
2018-11-23T13:35:12.921Z,19.27
2018-11-23T13:37:41.466Z,22.87
2018-11-23T13:40:12.691Z,22.70
2018-11-23T13:42:41.721Z,22.30
2018-11-23T13:45:11.781Z,21.10
2018-11-23T13:47:40.660Z,19.40
2018-11-23T13:50:11.661Z,21.30
2018-11-23T13:52:40.227Z,18.03
2018-11-23T13:55:11.151Z,18.53
2018-11-23T13:57:40.170Z,20.53
2018-11-23T14:00:12.377Z,19.70
2018-11-23T14:02:40.964Z,18.00
2018-11-23T14:05:11.355Z,20.50
2018-11-23T14:07:40.214Z,19.73
2018-11-23T14:10:11.166Z,20.17
2018-11-23T14:12:39.605Z,20.87
2018-11-23T14:15:13.209Z,21.73
2018-11-23T14:17:42.187Z,18.43
2018-11-23T14:20:11.607Z,19.63
2018-11-23T14:22:39.936Z,19.67
2018-11-23T14:25:10.025Z,19.97
2018-11-23T14:27:38.333Z,18.77
2018-11-23T14:30:10.787Z,19.77
2018-11-23T14:32:39.570Z,19.03
2018-11-23T14:35:09.590Z,18.30
2018-11-23T14:37:38.561Z,18.87
2018-11-23T14:40:07.127Z,20.13
2018-11-23T14:42:35.459Z,18.17
2018-11-23T14:45:04.542Z,18.53
2018-11-23T14:47:33.185Z,20.13
2018-11-23T14:50:07.312Z,21.20
2018-11-23T14:52:35.633Z,22.73
2018-11-23T14:55:04.264Z,20.27
2018-11-23T14:57:32.578Z,20.00
2018-11-23T15:00:00.894Z,20.57
2018-11-23T15:02:30.241Z,19.83
2018-11-23T15:04:58.756Z,19.60
2018-11-23T15:07:27.375Z,20.70
2018-11-23T15:09:55.687Z,19.57
2018-11-23T15:12:24.405Z,19.03
2018-11-23T15:14:52.810Z,18.50
2018-11-23T15:17:22.170Z,20.13
2018-11-23T15:19:52.154Z,19.37
2018-11-23T15:22:20.581Z,19.57
2018-11-23T15:24:48.903Z,19.20
2018-11-23T15:27:17.250Z,18.63
2018-11-23T15:29:46.385Z,21.23
2018-11-23T15:32:14.699Z,20.50
2018-11-23T15:34:43.011Z,20.83
2018-11-23T15:37:11.325Z,20.10
2018-11-23T15:39:40.212Z,20.00
2018-11-23T15:42:08.549Z,20.72
2018-11-23T15:44:36.861Z,20.77
2018-11-23T15:47:05.289Z,23.07
2018-11-23T15:49:33.607Z,21.30
2018-11-23T15:52:01.938Z,22.55
2018-11-23T15:54:30.290Z,22.20
2018-11-23T15:57:01.958Z,20.37
2018-11-23T15:59:30.350Z,22.67
2018-11-23T16:01:58.670Z,19.67
2018-11-23T16:04:27.160Z,22.85
2018-11-23T16:06:55.864Z,21.00
2018-11-23T16:09:24.263Z,19.30
2018-11-23T16:11:53.454Z,20.52
2018-11-23T16:14:25.222Z,20.10
2018-11-23T16:16:53.529Z,21.17
2018-11-23T16:19:21.858Z,23.10
2018-11-23T16:21:50.188Z,22.22
2018-11-23T16:24:19.759Z,20.55
2018-11-23T16:26:48.104Z,20.43
2018-11-23T16:29:16.553Z,21.55
2018-11-23T16:31:44.842Z,20.82
2018-11-23T16:34:17.477Z,23.85
2018-11-23T16:36:45.802Z,23.57
2018-11-23T16:39:14.129Z,22.90
2018-11-23T16:41:43.498Z,23.52
2018-11-23T16:44:12.665Z,23.70
2018-11-23T16:46:41.621Z,22.00
2018-11-23T16:49:10.037Z,18.73
2018-11-23T16:51:39.278Z,22.73
2018-11-23T16:54:07.952Z,24.10
2018-11-23T16:56:36.301Z,26.60
2018-11-23T16:59:04.628Z,28.12
2018-11-23T17:01:33.291Z,28.20
2018-11-23T17:04:01.601Z,26.60
2018-11-23T17:06:30.077Z,23.60
2018-11-23T17:09:00.756Z,21.68
2018-11-23T17:11:29.090Z,21.45
2018-11-23T17:13:57.410Z,21.87
2018-11-23T17:16:25.724Z,21.45
2018-11-23T17:18:54.723Z,20.27
2018-11-23T17:21:23.029Z,21.60
2018-11-23T17:23:51.361Z,19.82
2018-11-23T17:26:19.667Z,18.98
2018-11-23T17:28:52.353Z,19.37
2018-11-23T17:31:20.978Z,21.02
2018-11-23T17:33:49.306Z,21.93
2018-11-23T17:36:17.634Z,22.67
2018-11-23T17:38:47.524Z,21.40
2018-11-23T17:41:15.329Z,20.32
2018-11-23T17:43:44.446Z,20.82
2018-11-23T17:46:12.781Z,20.60
2018-11-23T17:48:43.426Z,22.55
2018-11-23T17:51:12.921Z,19.80
2018-11-23T17:53:42.180Z,20.45
2018-11-23T17:56:11.593Z,22.13
2018-11-23T17:58:40.342Z,20.82
2018-11-23T18:01:10.232Z,22.07
2018-11-23T18:03:40.158Z,23.73
2018-11-23T18:06:09.200Z,21.57
2018-11-23T18:08:38.987Z,21.40
2018-11-23T18:11:05.951Z,20.17
2018-11-23T18:13:34.889Z,21.35
2018-11-23T18:16:03.226Z,20.37
2018-11-23T18:18:32.396Z,19.42
2018-11-23T18:21:00.713Z,21.35
2018-11-23T18:23:29.023Z,20.68
2018-11-23T18:25:57.324Z,22.05
2018-11-23T18:28:25.662Z,22.48
2018-11-23T18:30:53.959Z,22.00
2018-11-23T18:33:22.259Z,21.70
2018-11-23T18:35:50.560Z,22.70
2018-11-23T18:38:18.863Z,23.77
2018-11-23T18:40:47.171Z,22.75
2018-11-23T18:43:15.496Z,23.62
2018-11-23T18:45:43.834Z,22.55
2018-11-23T18:48:12.220Z,22.95
2018-11-23T18:50:40.544Z,24.07
2018-11-23T18:53:08.869Z,25.20
2018-11-23T18:55:37.165Z,25.52
2018-11-23T18:58:05.510Z,21.37
2018-11-23T19:00:33.850Z,23.00
2018-11-23T19:03:02.213Z,22.32
2018-11-23T19:05:30.537Z,20.48
2018-11-23T19:07:58.982Z,21.93
2018-11-23T19:10:27.287Z,20.90
2018-11-23T19:12:55.606Z,23.75
2018-11-23T19:15:25.508Z,24.98
2018-11-23T19:17:52.245Z,23.65
2018-11-23T19:20:25.809Z,21.48
2018-11-23T19:22:54.840Z,20.65
2018-11-23T19:25:23.514Z,22.48
2018-11-23T19:27:52.825Z,24.65
2018-11-23T19:30:28.411Z,24.75
2018-11-23T19:32:51.978Z,25.17
2018-11-23T19:35:20.620Z,24.55
2018-11-23T19:37:49.427Z,23.95
2018-11-23T19:40:18.877Z,23.00
2018-11-23T19:42:47.210Z,20.52
2018-11-23T19:45:16.452Z,23.67
2018-11-23T19:47:45.124Z,21.40
2018-11-23T19:50:15.787Z,20.32
2018-11-23T19:52:44.505Z,22.40
2018-11-23T19:55:13.790Z,22.48
2018-11-23T19:57:42.158Z,21.90
2018-11-23T20:00:25.930Z,21.95
2018-11-23T20:02:54.418Z,22.37
2018-11-23T20:05:23.095Z,22.30
2018-11-23T20:07:53.967Z,21.48
2018-11-23T20:10:24.877Z,20.57
2018-11-23T20:12:54.529Z,21.37
2018-11-23T20:15:23.198Z,21.95
2018-11-23T20:17:51.565Z,21.07
2018-11-23T20:20:22.510Z,22.20
2018-11-23T20:22:53.159Z,21.52
2018-11-23T20:25:21.646Z,20.30
2018-11-23T20:27:50.975Z,20.20
2018-11-23T20:30:21.570Z,21.70
2018-11-23T20:32:50.058Z,28.85
2018-11-23T20:35:21.417Z,25.10
2018-11-23T20:37:49.810Z,23.50
2018-11-23T20:40:20.001Z,25.10
2018-11-23T20:42:48.530Z,22.22
2018-11-23T20:45:16.930Z,21.70
2018-11-23T20:47:45.346Z,26.65
2018-11-23T20:50:15.688Z,26.15
2018-11-23T20:52:44.104Z,22.87
2018-11-23T20:55:13.641Z,21.70
2018-11-23T20:57:42.179Z,20.23
2018-11-23T21:00:12.846Z,21.05
2018-11-23T21:02:44.296Z,22.55
2018-11-23T21:05:13.535Z,22.25
2018-11-23T21:07:41.869Z,22.20
2018-11-23T21:10:20.076Z,25.48
2018-11-23T21:12:41.602Z,20.68
2018-11-23T21:15:16.980Z,23.12
2018-11-23T21:17:45.348Z,22.75
2018-11-23T21:20:13.738Z,21.60
2018-11-23T21:22:42.075Z,23.07
2018-11-23T21:25:11.429Z,22.73
2018-11-23T21:27:39.797Z,23.07
2018-11-23T21:30:12.387Z,22.35
2018-11-23T21:32:40.732Z,23.40
2018-11-23T21:35:09.825Z,21.48
2018-11-23T21:37:38.214Z,23.50
2018-11-23T21:40:10.653Z,23.83
2018-11-23T21:42:38.986Z,21.23
2018-11-23T21:45:09.795Z,22.52
2018-11-23T21:47:38.242Z,21.87
2018-11-23T21:50:10.793Z,21.33
2018-11-23T21:52:39.151Z,21.50
2018-11-23T21:55:12.602Z,22.10
2018-11-23T21:57:40.920Z,21.37
2018-11-23T22:00:13.240Z,20.55
2018-11-23T22:02:41.606Z,20.00
2018-11-23T22:05:10.087Z,21.57
2018-11-23T22:07:38.469Z,19.77
2018-11-23T22:10:14.335Z,22.02
2018-11-23T22:12:42.687Z,21.25
2018-11-23T22:15:13.246Z,19.02
2018-11-23T22:17:41.684Z,19.73
2018-11-23T22:20:17.597Z,18.75
2018-11-23T22:22:45.930Z,21.60
2018-11-23T22:25:16.826Z,20.95
2018-11-23T22:27:45.193Z,21.10
2018-11-23T22:30:31.297Z,20.88
2018-11-23T22:32:59.724Z,21.15
2018-11-23T22:35:29.074Z,20.10
2018-11-23T22:37:57.441Z,20.77
2018-11-23T22:40:25.819Z,22.48
2018-11-23T22:42:55.514Z,19.98
2018-11-23T22:45:24.081Z,21.57
2018-11-23T22:47:52.424Z,19.82
2018-11-23T22:50:21.839Z,19.62
2018-11-23T22:52:50.183Z,18.70
2018-11-23T22:55:19.014Z,21.25
2018-11-23T22:57:47.372Z,20.95
2018-11-23T23:00:23.946Z,21.10
2018-11-23T23:02:52.995Z,25.10
2018-11-23T23:05:23.053Z,24.47
2018-11-23T23:07:51.410Z,26.00
2018-11-23T23:10:19.744Z,26.10
2018-11-23T23:12:48.344Z,27.17
2018-11-23T23:15:16.801Z,24.63
2018-11-23T23:17:45.286Z,25.60
2018-11-23T23:20:14.679Z,23.18
2018-11-23T23:22:43.028Z,23.65
2018-11-23T23:25:12.495Z,22.80
2018-11-23T23:27:40.822Z,21.60
2018-11-23T23:30:15.940Z,19.98
2018-11-23T23:32:44.501Z,21.82
2018-11-23T23:35:13.746Z,22.10
2018-11-23T23:37:42.213Z,21.40
2018-11-23T23:40:13.313Z,21.57
2018-11-23T23:42:41.614Z,20.25
2018-11-23T23:45:10.925Z,20.10
2018-11-23T23:47:39.246Z,20.25
2018-11-23T23:50:09.406Z,18.70
2018-11-23T23:52:37.703Z,20.23
2018-11-23T23:55:07.069Z,21.77
2018-11-23T23:57:35.384Z,21.20
